Time;durP1;ratioP1;P1;durP2;ratioP2;P2;SDS_P1;SDS_P2;PMS_P1;PMS_P2;Temp;Humidity;BMP_temperature;BMP_pressure;BME280_temperature;BME280_humidity;BME280_pressure;Samples;Min_cycle;Max_cycle;Signal;HPM_P1;HPM_P2
2022/01/12 00:00:05;;;;;;;33.43;12.97;;;0.90;99.90;;;;;;5063934;28;20191;-66
2022/01/12 00:02:30;;;;;;;31.47;13.17;;;0.90;99.90;;;;;;5064747;28;20200;-66
2022/01/12 00:04:57;;;;;;;29.37;14.00;;;1.00;99.90;;;;;;5064446;28;20615;-67
2022/01/12 00:07:23;;;;;;;27.10;13.10;;;1.00;99.90;;;;;;5065084;28;20757;-67
2022/01/12 00:09:48;;;;;;;32.27;13.70;;;1.00;99.90;;;;;;5057243;28;20276;-66
2022/01/12 00:12:14;;;;;;;34.00;13.57;;;1.00;99.90;;;;;;5063541;28;20205;-67
2022/01/12 00:14:40;;;;;;;32.07;13.57;;;1.00;99.90;;;;;;5064543;28;20272;-68
2022/01/12 00:17:05;;;;;;;31.43;12.40;;;1.00;99.90;;;;;;5064974;28;20189;-67
2022/01/12 00:19:31;;;;;;;35.10;12.90;;;1.00;99.90;;;;;;5062390;28;20227;-66
2022/01/12 00:21:57;;;;;;;31.87;12.10;;;0.90;99.90;;;;;;5064926;28;20262;-67
2022/01/12 00:24:27;;;;;;;28.50;13.00;;;1.00;99.90;;;;;;5064274;28;20205;-65
2022/01/12 00:35:05;;;;;;;29.40;13.17;;;0.90;99.90;;;;;;5064554;28;20246;-69
2022/01/12 00:37:31;;;;;;;36.77;14.60;;;0.90;99.90;;;;;;5064934;28;20194;-67
2022/01/12 00:39:58;;;;;;;29.93;13.00;;;0.90;99.90;;;;;;5063444;28;20689;-65
2022/01/12 00:42:28;;;;;;;28.50;12.93;;;0.90;99.90;;;;;;5063428;28;20231;-66
2022/01/12 00:44:54;;;;;;;27.47;12.37;;;0.90;99.90;;;;;;5062986;28;20213;-66
2022/01/12 00:47:20;;;;;;;29.33;13.03;;;0.90;99.90;;;;;;5064250;28;20273;-67
2022/01/12 00:49:46;;;;;;;25.03;11.53;;;0.90;99.90;;;;;;5062595;28;20264;-66
2022/01/12 00:52:11;;;;;;;29.97;12.90;;;0.90;99.90;;;;;;5062197;28;20294;-66
2022/01/12 00:54:38;;;;;;;24.37;11.33;;;0.80;99.90;;;;;;5067359;28;20691;-68
2022/01/12 00:57:04;;;;;;;28.03;11.30;;;0.80;99.90;;;;;;5067427;28;20189;-66
2022/01/12 00:59:30;;;;;;;24.70;12.37;;;0.80;99.90;;;;;;5067532;28;20181;-68
2022/01/12 01:01:56;;;;;;;29.27;11.77;;;0.80;99.90;;;;;;5067571;28;20555;-68
2022/01/12 01:04:21;;;;;;;21.60;11.83;;;0.80;99.90;;;;;;5067669;28;20280;-67
2022/01/12 01:06:47;;;;;;;23.33;11.30;;;0.80;99.90;;;;;;5068188;28;20245;-68
2022/01/12 01:09:13;;;;;;;26.87;11.70;;;0.80;99.90;;;;;;5067294;28;20193;-68
2022/01/12 01:11:38;;;;;;;26.20;12.53;;;0.80;99.90;;;;;;5067512;28;20708;-67
2022/01/12 01:14:15;;;;;;;22.43;11.17;;;0.70;99.90;;;;;;5066309;28;20209;-68
2022/01/12 01:27:19;;;;;;;22.37;10.43;;;0.70;99.90;;;;;;5068056;28;20203;-66
2022/01/12 01:29:45;;;;;;;21.90;10.50;;;0.70;99.90;;;;;;5066983;28;20182;-66
2022/01/12 01:32:12;;;;;;;21.67;11.00;;;0.80;99.90;;;;;;5067573;28;20217;-67
2022/01/12 01:34:43;;;;;;;23.97;11.50;;;0.80;99.90;;;;;;5067505;28;20225;-68
2022/01/12 01:37:09;;;;;;;21.77;10.60;;;0.90;99.90;;;;;;5067698;28;20705;-67
2022/01/12 01:39:35;;;;;;;20.73;10.13;;;0.90;99.90;;;;;;5066262;28;20617;-67
2022/01/12 01:42:06;;;;;;;20.17;9.60;;;0.90;99.90;;;;;;5067231;28;20200;-68
2022/01/12 01:55:18;;;;;;;19.43;9.93;;;0.90;99.90;;;;;;5066490;28;20216;-68
2022/01/12 01:57:43;;;;;;;22.50;9.93;;;0.80;99.90;;;;;;5066013;28;20209;-67
2022/01/12 02:00:12;;;;;;;21.30;10.03;;;0.80;99.90;;;;;;5064696;28;20189;-68
2022/01/12 02:02:38;;;;;;;17.67;9.13;;;0.90;99.90;;;;;;5066907;28;20178;-68
2022/01/12 02:05:05;;;;;;;18.53;9.33;;;0.90;99.90;;;;;;5066358;28;20228;-68
2022/01/12 02:07:33;;;;;;;16.60;8.17;;;0.90;99.90;;;;;;5067230;28;20276;-67
2022/01/12 02:09:58;;;;;;;18.07;9.13;;;0.90;99.90;;;;;;5066135;28;20193;-66
2022/01/12 02:12:27;;;;;;;18.10;8.53;;;1.00;99.90;;;;;;5067217;28;20244;-70
2022/01/12 02:14:54;;;;;;;17.70;9.03;;;1.00;99.90;;;;;;5066808;28;20201;-66
2022/01/12 02:17:24;;;;;;;18.63;9.67;;;1.00;99.90;;;;;;5066470;28;20177;-68
2022/01/12 02:20:29;;;;;;;21.07;10.60;;;1.00;99.90;;;;;;5065663;28;20177;-65
2022/01/12 02:36:28;;;;;;;17.00;8.37;;;1.10;99.90;;;;;;5067155;28;20204;-67
2022/01/12 02:41:40;;;;;;;16.33;8.00;;;1.00;99.90;;;;;;5065727;28;20612;-70
2022/01/12 02:54:48;;;;;;;19.80;8.97;;;1.10;99.90;;;;;;5066036;28;20201;-67
2022/01/12 02:57:14;;;;;;;18.07;8.87;;;1.10;99.90;;;;;;5066932;28;20189;-70
2022/01/12 02:59:58;;;;;;;19.03;8.83;;;1.00;99.90;;;;;;5064308;28;20307;-68
2022/01/12 03:02:32;;;;;;;17.83;9.37;;;1.00;99.90;;;;;;5066028;28;20231;-67
2022/01/12 03:07:37;;;;;;;18.10;8.57;;;1.00;99.90;;;;;;5066085;28;20212;-67
2022/01/12 03:10:08;;;;;;;17.03;8.57;;;1.10;99.90;;;;;;5064960;28;20217;-70
2022/01/12 03:12:42;;;;;;;15.43;8.63;;;1.20;99.90;;;;;;5065859;28;20209;-68
2022/01/12 03:15:09;;;;;;;16.27;8.50;;;1.10;99.90;;;;;;5065758;28;20692;-67
2022/01/12 03:17:34;;;;;;;13.77;7.90;;;1.10;99.90;;;;;;5065533;28;20263;-68
2022/01/12 03:20:02;;;;;;;15.67;8.47;;;1.10;99.90;;;;;;5065040;28;20227;-68
2022/01/12 03:22:28;;;;;;;13.50;7.83;;;1.10;99.90;;;;;;5065606;28;20292;-67
2022/01/12 03:24:54;;;;;;;16.23;8.30;;;1.10;99.90;;;;;;5065537;28;20280;-66
2022/01/12 03:27:21;;;;;;;15.30;8.27;;;1.20;99.90;;;;;;5065487;28;20671;-66
2022/01/12 03:29:50;;;;;;;13.67;8.23;;;1.20;99.90;;;;;;5063613;28;20661;-68
2022/01/12 03:32:20;;;;;;;13.73;7.40;;;1.10;99.90;;;;;;5065593;28;20213;-70
2022/01/12 03:34:53;;;;;;;13.97;8.03;;;1.10;99.90;;;;;;5065043;28;20198;-68
2022/01/12 03:37:41;;;;;;;15.97;7.47;;;1.00;99.90;;;;;;5065249;28;20181;-69
2022/01/12 03:40:09;;;;;;;12.77;7.30;;;1.00;99.90;;;;;;5064474;28;20268;-66
2022/01/12 03:42:35;;;;;;;13.43;7.27;;;1.00;99.90;;;;;;5064822;28;20189;-69
2022/01/12 03:45:01;;;;;;;13.20;6.87;;;1.00;99.90;;;;;;5063753;28;20213;-67
2022/01/12 03:47:26;;;;;;;14.10;7.07;;;1.00;99.90;;;;;;5065231;28;20194;-67
2022/01/12 03:49:52;;;;;;;13.83;7.40;;;1.10;99.90;;;;;;5064382;28;20251;-67
2022/01/12 03:52:17;;;;;;;14.93;7.50;;;1.10;99.90;;;;;;5063647;28;20240;-68
2022/01/12 03:54:43;;;;;;;12.00;6.33;;;1.10;99.90;;;;;;5065147;28;20669;-66
2022/01/12 03:57:08;;;;;;;12.30;6.90;;;1.10;99.90;;;;;;5064913;28;20189;-67
2022/01/12 03:59:34;;;;;;;13.23;6.90;;;1.10;99.90;;;;;;5064352;28;20213;-66
2022/01/12 04:02:00;;;;;;;11.67;6.83;;;1.20;99.90;;;;;;5061944;28;20219;-67
2022/01/12 04:04:34;;;;;;;13.10;6.90;;;1.20;99.90;;;;;;5063559;28;20209;-67
2022/01/12 04:09:45;;;;;;;11.40;6.10;;;1.20;99.90;;;;;;5063758;28;20243;-67
2022/01/12 04:12:11;;;;;;;12.13;6.73;;;1.30;99.90;;;;;;5064210;28;20244;-68
2022/01/12 04:14:37;;;;;;;11.77;6.23;;;1.30;99.90;;;;;;5064525;28;20288;-67
2022/01/12 04:17:03;;;;;;;10.97;6.30;;;1.30;99.90;;;;;;5064428;28;20285;-66
2022/01/12 04:19:29;;;;;;;8.80;5.77;;;1.40;99.90;;;;;;5062315;28;20194;-68
2022/01/12 04:21:54;;;;;;;12.23;6.13;;;1.40;99.90;;;;;;5057911;28;20247;-67
2022/01/12 04:24:20;;;;;;;10.07;5.53;;;1.40;99.90;;;;;;5064063;28;20216;-68
2022/01/12 04:26:46;;;;;;;10.27;5.50;;;1.50;99.90;;;;;;5061809;28;20190;-67
2022/01/12 04:29:13;;;;;;;9.47;6.40;;;1.50;99.90;;;;;;5061785;28;20272;-68
2022/01/12 04:31:39;;;;;;;9.20;5.50;;;1.50;99.90;;;;;;5060213;28;20209;-66
2022/01/12 04:34:06;;;;;;;10.80;5.73;;;1.60;99.90;;;;;;5063414;28;20205;-68
2022/01/12 04:36:32;;;;;;;7.13;4.83;;;1.60;99.90;;;;;;5056601;28;20583;-67
2022/01/12 04:39:02;;;;;;;9.47;4.97;;;1.60;99.90;;;;;;5063407;28;20194;-68
2022/01/12 04:41:28;;;;;;;8.23;5.40;;;1.60;99.90;;;;;;5062939;28;20196;-67
2022/01/12 04:43:56;;;;;;;9.33;5.03;;;1.70;99.90;;;;;;5058459;28;20217;-70
2022/01/12 04:46:27;;;;;;;8.40;4.90;;;1.70;99.90;;;;;;5062408;28;20192;-66
2022/01/12 04:49:09;;;;;;;10.30;5.47;;;1.70;99.90;;;;;;5063621;28;20558;-66
2022/01/12 04:51:35;;;;;;;7.13;4.57;;;1.70;99.90;;;;;;5063916;28;20201;-67
2022/01/12 04:54:02;;;;;;;9.57;5.53;;;1.70;99.90;;;;;;5064327;28;20236;-65
2022/01/12 04:56:29;;;;;;;9.03;5.47;;;1.70;99.90;;;;;;5064600;28;20177;-68
2022/01/12 04:58:55;;;;;;;9.70;5.13;;;1.80;99.90;;;;;;5064596;28;20649;-65
2022/01/12 05:01:26;;;;;;;8.67;5.50;;;1.70;99.90;;;;;;5063454;28;20266;-70
2022/01/12 05:06:45;;;;;;;7.50;4.30;;;1.80;99.90;;;;;;5064631;28;20373;-68
2022/01/12 05:09:28;;;;;;;7.97;4.53;;;1.80;99.90;;;;;;5062206;28;20192;-66
2022/01/12 05:14:43;;;;;;;9.47;4.97;;;1.80;99.90;;;;;;5063704;28;20288;-68
2022/01/12 05:17:09;;;;;;;8.57;4.60;;;1.90;99.90;;;;;;5064319;28;20189;-66
2022/01/12 05:19:35;;;;;;;6.43;4.47;;;1.90;99.90;;;;;;5062749;28;20177;-67
2022/01/12 05:22:00;;;;;;;8.77;4.87;;;1.90;99.90;;;;;;5063513;28;20194;-68
2022/01/12 05:24:26;;;;;;;11.63;5.90;;;1.90;99.90;;;;;;5063784;28;20230;-67
2022/01/12 05:26:51;;;;;;;23.43;11.70;;;1.90;99.90;;;;;;5063756;28;20189;-66
2022/01/12 05:29:17;;;;;;;31.63;14.90;;;2.00;99.90;;;;;;5063507;28;20220;-66
2022/01/12 05:31:43;;;;;;;27.60;13.30;;;2.10;99.90;;;;;;5063217;28;20683;-66
2022/01/12 05:34:09;;;;;;;20.10;10.70;;;2.00;99.90;;;;;;5063622;28;20209;-68
2022/01/12 05:36:34;;;;;;;15.07;8.53;;;2.00;99.90;;;;;;5063591;28;20177;-66
2022/01/12 05:39:00;;;;;;;12.27;7.40;;;2.10;99.90;;;;;;5064403;28;20547;-68
2022/01/12 05:41:26;;;;;;;14.43;7.37;;;2.00;99.90;;;;;;5066423;28;20194;-67
2022/01/12 05:43:52;;;;;;;13.73;7.17;;;2.10;99.90;;;;;;5066997;28;20537;-67
2022/01/12 05:46:23;;;;;;;11.27;6.43;;;2.00;99.90;;;;;;5067052;28;20181;-68
2022/01/12 05:51:33;;;;;;;7.73;4.40;;;2.10;99.90;;;;;;5066305;28;20347;-67
2022/01/12 05:53:58;;;;;;;8.73;4.90;;;2.10;99.90;;;;;;5061319;28;20958;-67
2022/01/12 05:56:24;;;;;;;8.20;4.23;;;2.10;99.90;;;;;;5066942;28;20186;-67
2022/01/12 05:58:50;;;;;;;7.43;4.57;;;2.20;99.90;;;;;;5066902;28;20612;-66
2022/01/12 06:01:17;;;;;;;6.27;4.30;;;2.20;99.90;;;;;;5066217;28;20257;-68
2022/01/12 06:03:43;;;;;;;9.77;4.83;;;2.20;99.90;;;;;;5058656;28;20205;-67
2022/01/12 06:06:08;;;;;;;14.17;6.90;;;2.20;99.90;;;;;;5064043;28;20182;-66
2022/01/12 06:08:34;;;;;;;14.10;6.93;;;2.20;99.90;;;;;;5066535;28;20177;-67
2022/01/12 06:11:00;;;;;;;13.97;6.73;;;2.20;99.90;;;;;;5066140;28;20190;-67
2022/01/12 06:13:25;;;;;;;10.77;6.47;;;2.20;99.90;;;;;;5065443;28;20217;-69
2022/01/12 06:15:51;;;;;;;10.00;6.13;;;2.20;99.90;;;;;;5065213;28;20194;-67
2022/01/12 06:18:17;;;;;;;12.90;5.87;;;2.20;99.90;;;;;;5066814;28;20652;-67
2022/01/12 06:20:44;;;;;;;11.03;6.00;;;2.30;99.90;;;;;;5065329;28;20181;-67
2022/01/12 06:23:09;;;;;;;8.03;4.87;;;2.30;99.90;;;;;;5066607;28;20225;-67
2022/01/12 06:25:35;;;;;;;11.17;5.20;;;2.20;99.90;;;;;;5064587;28;20185;-68
2022/01/12 06:28:22;;;;;;;9.50;4.70;;;2.30;99.90;;;;;;5066576;28;20581;-66
2022/01/12 06:33:31;;;;;;;6.03;4.00;;;2.30;99.90;;;;;;5066242;28;20250;-68
2022/01/12 06:35:56;;;;;;;8.97;4.33;;;2.30;99.90;;;;;;5064655;28;20581;-69
2022/01/12 06:38:22;;;;;;;7.80;4.23;;;2.30;99.90;;;;;;5066319;28;20182;-67
2022/01/12 06:40:48;;;;;;;7.13;4.20;;;2.30;99.90;;;;;;5065225;28;20706;-65
2022/01/12 06:43:14;;;;;;;8.23;3.83;;;2.30;99.90;;;;;;5064610;28;20217;-67
2022/01/12 06:45:40;;;;;;;7.10;4.30;;;2.30;99.90;;;;;;5065911;28;20186;-67
2022/01/12 06:48:06;;;;;;;8.30;4.23;;;2.30;99.90;;;;;;5065965;28;20185;-67
2022/01/12 06:50:32;;;;;;;7.17;4.50;;;2.30;99.90;;;;;;5063473;28;20181;-66
2022/01/12 06:52:58;;;;;;;6.97;4.20;;;2.30;99.90;;;;;;5064557;28;20251;-68
2022/01/12 06:55:23;;;;;;;7.13;4.37;;;2.40;99.90;;;;;;5065532;28;20190;-68
2022/01/12 06:57:49;;;;;;;7.47;4.10;;;2.40;99.90;;;;;;5066053;28;20177;-67
2022/01/12 07:00:15;;;;;;;7.37;4.43;;;2.40;99.90;;;;;;5064498;28;20637;-70
2022/01/12 07:02:40;;;;;;;7.70;4.17;;;2.50;99.90;;;;;;5065810;28;20186;-67
2022/01/12 07:05:07;;;;;;;7.03;4.20;;;2.40;99.90;;;;;;5065434;28;20209;-68
2022/01/12 07:07:32;;;;;;;8.20;3.87;;;2.40;99.90;;;;;;5065887;28;20185;-68
2022/01/12 07:09:58;;;;;;;10.00;4.20;;;2.50;99.90;;;;;;5064397;28;20186;-69
2022/01/12 07:12:23;;;;;;;6.10;4.30;;;2.50;99.90;;;;;;5065763;28;20216;-69
2022/01/12 07:14:49;;;;;;;6.30;4.10;;;2.50;99.90;;;;;;5064874;28;20205;-67
2022/01/12 07:17:15;;;;;;;8.87;4.47;;;2.50;99.90;;;;;;5065699;28;20189;-67
2022/01/12 07:19:40;;;;;;;6.97;4.00;;;2.50;99.90;;;;;;5064562;28;20185;-68
2022/01/12 07:22:06;;;;;;;7.13;3.90;;;2.60;99.90;;;;;;5065011;28;20193;-68
2022/01/12 07:24:32;;;;;;;5.93;3.87;;;2.70;99.90;;;;;;5065153;28;20216;-68
2022/01/12 07:26:57;;;;;;;6.23;4.00;;;2.70;99.90;;;;;;5065066;28;20350;-67
2022/01/12 07:29:23;;;;;;;6.17;3.77;;;2.80;99.90;;;;;;5064601;28;20443;-68
2022/01/12 07:31:49;;;;;;;7.40;4.40;;;2.70;99.90;;;;;;5064039;28;20219;-68
2022/01/12 07:34:15;;;;;;;8.00;4.70;;;2.70;99.90;;;;;;5065012;28;20197;-66
2022/01/12 07:36:44;;;;;;;6.43;4.00;;;2.80;99.90;;;;;;5064766;28;20188;-69
2022/01/12 07:39:10;;;;;;;7.10;4.43;;;2.80;99.90;;;;;;5064287;28;20197;-69
2022/01/12 07:41:36;;;;;;;8.73;4.20;;;2.70;99.90;;;;;;5064747;28;20555;-66
2022/01/12 07:44:01;;;;;;;7.53;4.30;;;2.70;99.90;;;;;;5064664;28;20216;-65
2022/01/12 07:46:27;;;;;;;6.40;4.13;;;2.70;99.90;;;;;;5064695;28;20193;-68
2022/01/12 07:48:53;;;;;;;6.13;4.23;;;2.70;99.90;;;;;;5064786;28;20295;-66
2022/01/12 07:51:18;;;;;;;8.03;4.43;;;2.80;99.90;;;;;;5063486;28;20276;-69
2022/01/12 07:53:45;;;;;;;8.77;4.90;;;2.90;99.90;;;;;;5064794;28;20537;-69
2022/01/12 07:56:10;;;;;;;7.17;4.13;;;3.00;99.90;;;;;;5064478;28;20179;-66
2022/01/12 07:58:36;;;;;;;7.50;4.77;;;2.90;99.90;;;;;;5064700;28;20181;-66
2022/01/12 08:01:02;;;;;;;9.73;4.60;;;2.80;99.90;;;;;;5063438;28;20644;-67
2022/01/12 08:03:28;;;;;;;7.87;4.37;;;2.80;99.90;;;;;;5064351;28;20223;-68
2022/01/12 08:05:54;;;;;;;9.10;5.30;;;2.80;99.90;;;;;;5064232;28;20193;-65
2022/01/12 08:08:19;;;;;;;9.80;5.30;;;2.80;99.90;;;;;;5064712;28;20185;-66
2022/01/12 08:10:45;;;;;;;8.33;5.07;;;2.70;99.90;;;;;;5063347;28;20178;-67
2022/01/12 08:13:11;;;;;;;7.60;4.20;;;2.80;99.90;;;;;;5064697;28;20224;-67
2022/01/12 08:15:36;;;;;;;9.87;4.67;;;2.90;99.90;;;;;;5064507;28;20591;-65
2022/01/12 08:18:02;;;;;;;8.23;5.07;;;2.90;99.90;;;;;;5064368;28;20260;-68
2022/01/12 08:20:28;;;;;;;7.17;4.73;;;3.00;99.90;;;;;;5060347;28;20300;-67
2022/01/12 08:22:55;;;;;;;7.00;4.40;;;3.10;99.90;;;;;;5060796;28;20216;-67
2022/01/12 08:25:21;;;;;;;7.37;4.37;;;3.00;99.90;;;;;;5064414;28;20189;-66
2022/01/12 08:27:47;;;;;;;9.67;5.60;;;3.00;99.90;;;;;;5064685;28;20209;-66
2022/01/12 08:30:18;;;;;;;8.07;5.17;;;3.00;99.90;;;;;;5064012;28;20640;-69
2022/01/12 08:32:49;;;;;;;7.43;5.10;;;3.00;99.90;;;;;;5064335;28;20681;-66
2022/01/12 08:35:16;;;;;;;9.27;4.60;;;3.00;99.90;;;;;;5063436;28;20726;-70
2022/01/12 08:37:43;;;;;;;8.97;4.37;;;3.00;99.90;;;;;;5064645;28;20173;-69
2022/01/12 08:40:11;;;;;;;6.53;4.47;;;3.10;99.90;;;;;;5062756;28;20200;-66
2022/01/12 08:42:37;;;;;;;9.97;4.87;;;3.20;99.90;;;;;;5062360;28;20178;-67
2022/01/12 08:45:04;;;;;;;11.50;4.47;;;3.20;99.90;;;;;;5064285;28;20216;-65
2022/01/12 08:47:30;;;;;;;11.50;5.20;;;3.20;99.90;;;;;;5061439;28;20185;-66
2022/01/12 08:49:56;;;;;;;8.10;4.63;;;3.20;99.90;;;;;;5061411;28;20218;-65
2022/01/12 08:52:26;;;;;;;6.33;4.47;;;3.30;99.90;;;;;;5060648;28;20205;-67
2022/01/12 08:54:53;;;;;;;8.27;4.70;;;3.30;99.90;;;;;;5056862;28;20204;-67
2022/01/12 08:57:29;;;;;;;6.97;4.60;;;3.20;99.90;;;;;;5063309;28;20174;-64
2022/01/12 09:00:02;;;;;;;7.73;4.90;;;3.30;99.90;;;;;;5062794;28;20185;-65
2022/01/12 09:02:31;;;;;;;7.20;4.60;;;3.40;99.90;;;;;;5078880;28;20192;-65
2022/01/12 09:04:57;;;;;;;9.87;4.83;;;3.40;99.90;;;;;;5062704;28;20567;-64
2022/01/12 09:07:29;;;;;;;8.77;4.90;;;3.40;99.90;;;;;;5061633;28;20243;-65
2022/01/12 09:09:58;;;;;;;9.13;5.20;;;3.40;99.90;;;;;;5061844;28;20186;-64
2022/01/12 09:12:27;;;;;;;9.30;5.37;;;3.50;99.90;;;;;;5063301;28;20205;-67
2022/01/12 09:14:55;;;;;;;9.60;5.27;;;3.60;99.90;;;;;;5062505;28;20204;-64
2022/01/12 09:17:23;;;;;;;7.90;5.33;;;3.60;99.90;;;;;;5067007;28;20659;-64
2022/01/12 09:19:52;;;;;;;7.80;4.80;;;3.60;99.90;;;;;;5064280;28;20194;-65
2022/01/12 09:22:19;;;;;;;8.33;5.33;;;3.60;99.90;;;;;;5065478;28;20185;-64
2022/01/12 09:24:47;;;;;;;8.97;5.50;;;3.60;99.90;;;;;;5056771;28;20201;-66
2022/01/12 09:27:17;;;;;;;7.97;5.30;;;3.60;99.90;;;;;;5067219;28;20186;-66
2022/01/12 09:29:44;;;;;;;10.03;5.50;;;3.60;99.90;;;;;;5064763;28;20189;-66
2022/01/12 09:32:10;;;;;;;11.93;6.40;;;3.80;99.90;;;;;;5062250;28;20691;-66
2022/01/12 09:34:36;;;;;;;10.03;5.97;;;3.70;99.90;;;;;;5064551;28;20202;-69
2022/01/12 09:37:02;;;;;;;8.50;6.00;;;3.70;99.90;;;;;;5064511;28;20265;-66
2022/01/12 09:39:28;;;;;;;8.30;6.23;;;3.80;99.90;;;;;;5062413;28;20182;-65
2022/01/12 09:41:53;;;;;;;12.17;6.80;;;3.80;99.90;;;;;;5064241;28;20700;-66
2022/01/12 09:44:19;;;;;;;9.67;6.40;;;3.80;99.90;;;;;;5062471;28;20212;-66
2022/01/12 09:46:46;;;;;;;8.53;5.87;;;3.70;99.90;;;;;;5064859;28;20670;-65
2022/01/12 09:49:12;;;;;;;9.37;6.77;;;3.70;99.90;;;;;;5063725;28;20208;-62
2022/01/12 09:51:38;;;;;;;10.93;6.80;;;3.70;99.90;;;;;;5064679;28;20668;-66
2022/01/12 09:54:04;;;;;;;9.10;6.07;;;3.80;99.90;;;;;;5064373;28;20197;-65
2022/01/12 09:56:31;;;;;;;15.40;7.83;;;3.90;99.90;;;;;;5065114;28;20181;-67
2022/01/12 09:58:59;;;;;;;13.00;7.67;;;3.90;99.90;;;;;;5064797;28;20215;-66
2022/01/12 10:01:39;;;;;;;13.43;7.80;;;3.80;99.90;;;;;;5064327;28;20227;-67
2022/01/12 10:04:06;;;;;;;10.07;6.50;;;3.90;99.90;;;;;;5064571;28;20244;-65
2022/01/12 10:06:35;;;;;;;10.53;6.50;;;3.90;99.90;;;;;;5063008;28;20542;-67
2022/01/12 10:09:01;;;;;;;9.97;6.53;;;3.90;99.90;;;;;;5064344;28;20182;-63
2022/01/12 10:11:27;;;;;;;11.87;7.57;;;4.00;99.90;;;;;;5064339;28;20653;-68
2022/01/12 10:14:00;;;;;;;11.33;7.83;;;3.90;99.90;;;;;;5061011;28;20249;-65
2022/01/12 10:16:26;;;;;;;10.47;7.37;;;3.90;99.90;;;;;;5065358;28;20274;-66
2022/01/12 10:18:58;;;;;;;9.77;6.63;;;4.00;99.90;;;;;;5065009;28;20181;-67
2022/01/12 10:21:29;;;;;;;11.00;8.00;;;4.10;99.90;;;;;;5064441;28;20192;-67
2022/01/12 10:24:00;;;;;;;11.30;6.90;;;4.00;99.90;;;;;;5064582;28;20272;-66
2022/01/12 10:26:37;;;;;;;12.23;7.63;;;4.00;99.90;;;;;;5065565;28;20184;-67
2022/01/12 10:29:10;;;;;;;10.97;7.17;;;4.00;99.90;;;;;;5066566;28;20181;-65
2022/01/12 10:31:49;;;;;;;12.23;7.83;;;4.00;99.90;;;;;;5065235;28;20295;-65
2022/01/12 10:34:16;;;;;;;12.90;7.80;;;4.00;99.90;;;;;;5064569;28;20200;-64
2022/01/12 10:36:44;;;;;;;13.97;8.53;;;4.00;99.90;;;;;;5064116;28;20189;-65
2022/01/12 10:39:12;;;;;;;14.27;8.87;;;3.90;99.90;;;;;;5064333;28;20182;-67
2022/01/12 10:42:02;;;;;;;13.80;8.37;;;3.90;99.90;;;;;;5064959;28;20281;-66
2022/01/12 10:45:05;;;;;;;15.63;8.27;;;4.00;99.90;;;;;;5064964;28;20224;-64
2022/01/12 10:47:32;;;;;;;12.97;8.60;;;4.00;99.90;;;;;;5023433;28;20185;-65
2022/01/12 10:50:07;;;;;;;14.43;9.07;;;4.00;99.90;;;;;;5057186;28;20190;-66
2022/01/12 10:52:47;;;;;;;15.80;9.83;;;3.90;99.90;;;;;;5065762;28;20889;-69
2022/01/12 10:55:15;;;;;;;15.50;9.60;;;4.00;99.90;;;;;;5066143;28;20184;-66
2022/01/12 10:57:44;;;;;;;16.07;9.47;;;4.00;99.90;;;;;;5064986;28;20268;-66
2022/01/12 11:00:26;;;;;;;13.13;8.97;;;4.00;99.90;;;;;;5064502;28;20173;-65
2022/01/12 11:02:54;;;;;;;17.37;9.53;;;4.10;99.90;;;;;;5065081;28;20189;-65
2022/01/12 11:05:23;;;;;;;16.53;10.00;;;4.10;99.90;;;;;;5066242;28;20641;-66
2022/01/12 11:07:50;;;;;;;16.90;9.67;;;4.00;99.90;;;;;;5065800;28;20285;-65
2022/01/12 11:10:16;;;;;;;14.77;10.23;;;4.10;99.90;;;;;;5064976;28;20190;-67
2022/01/12 11:12:42;;;;;;;16.23;10.53;;;4.10;99.90;;;;;;5065459;28;20209;-67
2022/01/12 11:15:09;;;;;;;15.90;10.40;;;4.10;99.90;;;;;;5065246;28;20185;-66
2022/01/12 11:17:39;;;;;;;17.70;10.73;;;4.00;99.90;;;;;;5065820;28;20177;-66
2022/01/12 11:20:16;;;;;;;15.57;11.07;;;4.10;99.90;;;;;;5063229;28;20178;-66
2022/01/12 11:23:08;;;;;;;15.87;9.93;;;4.10;99.90;;;;;;5064888;28;20192;-66
2022/01/12 11:25:38;;;;;;;15.17;10.30;;;4.10;99.90;;;;;;5064135;28;20181;-65
2022/01/12 11:28:06;;;;;;;18.33;11.63;;;4.20;99.90;;;;;;5065082;28;20574;-66
2022/01/12 11:30:33;;;;;;;15.27;10.53;;;4.20;99.90;;;;;;5064620;28;20304;-66
2022/01/12 11:33:02;;;;;;;16.20;10.80;;;4.30;99.90;;;;;;5065071;28;20237;-66
2022/01/12 11:35:32;;;;;;;17.40;10.93;;;4.20;99.90;;;;;;5065719;28;20200;-67
2022/01/12 11:37:59;;;;;;;17.67;11.10;;;4.30;99.90;;;;;;5062412;28;20912;-64
2022/01/12 11:40:39;;;;;;;20.30;10.87;;;4.30;99.90;;;;;;5064095;28;20185;-67
2022/01/12 11:43:36;;;;;;;16.53;10.27;;;4.40;99.90;;;;;;5064472;28;20259;-65
2022/01/12 11:46:06;;;;;;;19.23;12.30;;;4.30;99.90;;;;;;5038175;28;20197;-64
2022/01/12 11:48:47;;;;;;;16.83;11.13;;;4.40;99.90;;;;;;5063822;28;20186;-64
2022/01/12 11:51:15;;;;;;;18.73;10.90;;;4.40;99.90;;;;;;5064113;28;20196;-66
2022/01/12 11:53:47;;;;;;;19.70;11.83;;;4.40;99.90;;;;;;5064352;28;20248;-65
2022/01/12 11:56:16;;;;;;;20.87;12.20;;;4.40;99.90;;;;;;5064680;28;20673;-64
2022/01/12 11:59:26;;;;;;;18.47;11.47;;;4.40;99.90;;;;;;5064215;28;20177;-66
2022/01/12 12:02:25;;;;;;;21.20;12.80;;;4.40;99.90;;;;;;5070210;28;20218;-64
2022/01/12 12:04:57;;;;;;;20.03;12.20;;;4.40;99.90;;;;;;5066388;28;20221;-64
2022/01/12 12:07:24;;;;;;;21.43;13.33;;;4.40;99.90;;;;;;5064493;28;20213;-66
2022/01/12 12:09:57;;;;;;;24.27;13.50;;;4.40;99.90;;;;;;5056422;28;20185;-64
2022/01/12 12:12:27;;;;;;;22.70;14.27;;;4.50;99.90;;;;;;5064523;28;20740;-66
2022/01/12 12:14:55;;;;;;;22.10;13.63;;;4.50;99.90;;;;;;5064187;28;20284;-66
2022/01/12 12:17:23;;;;;;;22.03;13.20;;;4.40;99.90;;;;;;5064887;28;20691;-65
2022/01/12 12:19:50;;;;;;;24.70;13.87;;;4.40;99.90;;;;;;5063553;28;20235;-65
2022/01/12 12:22:17;;;;;;;23.83;15.17;;;4.40;99.90;;;;;;5062907;28;20290;-66
2022/01/12 12:24:45;;;;;;;27.60;14.83;;;4.40;99.90;;;;;;5064221;28;21193;-66
2022/01/12 12:27:16;;;;;;;22.07;13.17;;;4.50;99.90;;;;;;5063947;28;20694;-66
2022/01/12 12:29:44;;;;;;;22.50;14.10;;;4.50;99.90;;;;;;5063439;28;20203;-65
2022/01/12 12:32:13;;;;;;;25.17;14.70;;;4.40;99.90;;;;;;5064061;28;20688;-66
2022/01/12 12:34:40;;;;;;;24.93;15.07;;;4.50;99.90;;;;;;5064398;28;20194;-64
2022/01/12 12:37:09;;;;;;;26.80;16.13;;;4.40;99.90;;;;;;5064015;28;20186;-67
2022/01/12 12:39:38;;;;;;;25.80;15.90;;;4.40;99.90;;;;;;5062110;28;20182;-64
2022/01/12 12:42:13;;;;;;;25.10;15.37;;;4.40;99.90;;;;;;5063944;28;20193;-64
2022/01/12 12:44:39;;;;;;;24.90;14.60;;;4.40;99.90;;;;;;5063967;28;20656;-64
2022/01/12 12:47:13;;;;;;;25.63;16.20;;;4.50;99.90;;;;;;5059129;28;20212;-66
2022/01/12 12:49:53;;;;;;;23.07;15.23;;;4.60;99.90;;;;;;5066925;28;20589;-65
2022/01/12 12:52:22;;;;;;;28.30;16.07;;;4.50;99.90;;;;;;5068010;28;20236;-66
2022/01/12 12:54:48;;;;;;;31.40;16.43;;;4.50;99.90;;;;;;5064043;28;20216;-66
2022/01/12 12:57:20;;;;;;;27.83;16.57;;;4.50;99.90;;;;;;5066086;28;20185;-65
2022/01/12 12:59:50;;;;;;;26.57;16.10;;;4.50;99.90;;;;;;5064972;28;20668;-67
2022/01/12 13:02:17;;;;;;;24.33;14.67;;;4.60;99.90;;;;;;5065940;28;20193;-66
2022/01/12 13:04:43;;;;;;;22.90;14.50;;;4.60;99.90;;;;;;5065694;28;20197;-65
2022/01/12 13:07:17;;;;;;;25.00;14.80;;;4.60;99.90;;;;;;5065186;28;20192;-64
2022/01/12 13:09:46;;;;;;;25.73;15.47;;;4.70;99.90;;;;;;5059397;28;20177;-64
2022/01/12 13:12:13;;;;;;;25.13;14.50;;;4.70;99.90;;;;;;5064388;28;20197;-67
2022/01/12 13:14:47;;;;;;;26.50;15.17;;;4.70;99.90;;;;;;5063003;28;20204;-66
2022/01/12 13:17:14;;;;;;;24.07;14.40;;;4.70;99.90;;;;;;5063912;28;20787;-66
2022/01/12 13:22:33;;;;;;;22.73;13.63;;;4.60;99.90;;;;;;5065317;28;20298;-66
2022/01/12 13:25:00;;;;;;;25.43;13.10;;;4.50;99.90;;;;;;5064613;28;20240;-66
2022/01/12 13:27:27;;;;;;;27.17;16.10;;;4.40;99.90;;;;;;5065542;28;20178;-63
2022/01/12 13:29:53;;;;;;;27.77;14.53;;;4.40;99.90;;;;;;5063815;28;20718;-64
2022/01/12 13:32:20;;;;;;;25.47;14.67;;;4.30;99.90;;;;;;5064778;28;20296;-66
2022/01/12 13:35:01;;;;;;;25.40;14.87;;;4.30;99.90;;;;;;5064542;28;20234;-68
2022/01/12 13:37:28;;;;;;;25.03;14.83;;;4.20;99.90;;;;;;5064606;28;20516;-66
2022/01/12 13:40:14;;;;;;;22.93;13.63;;;4.20;99.90;;;;;;5063187;28;20820;-68
2022/01/12 13:42:54;;;;;;;26.23;13.87;;;4.20;99.90;;;;;;5064378;28;20727;-65
2022/01/12 13:45:39;;;;;;;30.13;14.67;;;4.20;99.90;;;;;;5065033;28;20182;-65
2022/01/12 13:48:14;;;;;;;24.00;14.47;;;4.20;99.90;;;;;;5064236;28;20516;-66
2022/01/12 13:50:52;;;;;;;28.50;15.07;;;4.20;99.90;;;;;;5058654;28;20192;-65
2022/01/12 13:53:19;;;;;;;26.27;13.77;;;4.10;99.90;;;;;;5062910;28;20217;-67
2022/01/12 13:55:53;;;;;;;27.40;14.47;;;4.20;99.90;;;;;;5060508;28;20260;-65
2022/01/12 13:58:24;;;;;;;26.47;15.13;;;4.10;99.90;;;;;;5064598;28;20655;-63
2022/01/12 14:01:03;;;;;;;28.17;14.87;;;4.10;99.90;;;;;;5063296;28;20177;-65
2022/01/12 14:03:29;;;;;;;25.13;15.07;;;4.10;99.90;;;;;;5063987;28;20812;-65
2022/01/12 14:05:59;;;;;;;26.97;15.87;;;4.00;99.90;;;;;;5063353;28;20212;-65
2022/01/12 14:08:41;;;;;;;26.10;15.67;;;4.10;99.90;;;;;;5062740;28;20186;-66